sensor_id;sensor_type;location;lat;lon;timestamp;P1;durP1;ratioP1;P2;durP2;ratioP2
61635;SDS011;59438;45.014;39.006;2023-06-26T00:00:31;15.23;;;6.47;;
61635;SDS011;59438;45.014;39.006;2023-06-26T00:02:57;16.77;;;7.10;;
61635;SDS011;59438;45.014;39.006;2023-06-26T00:05:23;19.15;;;7.00;;
61635;SDS011;59438;45.014;39.006;2023-06-26T00:07:50;19.33;;;6.65;;
61635;SDS011;59438;45.014;39.006;2023-06-26T00:10:17;14.15;;;6.22;;
61635;SDS011;59438;45.014;39.006;2023-06-26T00:12:44;19.65;;;7.18;;
61635;SDS011;59438;45.014;39.006;2023-06-26T00:15:10;13.38;;;6.78;;
61635;SDS011;59438;45.014;39.006;2023-06-26T00:17:37;13.52;;;6.90;;
61635;SDS011;59438;45.014;39.006;2023-06-26T00:20:03;15.77;;;6.60;;
61635;SDS011;59438;45.014;39.006;2023-06-26T00:22:30;10.25;;;6.70;;
61635;SDS011;59438;45.014;39.006;2023-06-26T00:24:57;21.30;;;6.90;;
61635;SDS011;59438;45.014;39.006;2023-06-26T00:27:24;12.98;;;7.18;;
61635;SDS011;59438;45.014;39.006;2023-06-26T00:29:51;22.40;;;6.78;;
61635;SDS011;59438;45.014;39.006;2023-06-26T00:32:17;11.32;;;6.80;;
61635;SDS011;59438;45.014;39.006;2023-06-26T00:34:44;16.15;;;7.03;;
61635;SDS011;59438;45.014;39.006;2023-06-26T00:37:10;13.68;;;6.82;;
61635;SDS011;59438;45.014;39.006;2023-06-26T00:39:36;11.50;;;6.65;;
61635;SDS011;59438;45.014;39.006;2023-06-26T00:42:03;17.00;;;6.78;;
61635;SDS011;59438;45.014;39.006;2023-06-26T00:44:31;17.13;;;7.10;;
61635;SDS011;59438;45.014;39.006;2023-06-26T00:46:57;18.10;;;7.60;;
61635;SDS011;59438;45.014;39.006;2023-06-26T00:49:23;15.32;;;7.00;;
61635;SDS011;59438;45.014;39.006;2023-06-26T00:51:51;16.02;;;6.85;;
61635;SDS011;59438;45.014;39.006;2023-06-26T00:54:18;15.90;;;7.55;;
61635;SDS011;59438;45.014;39.006;2023-06-26T00:56:45;12.63;;;7.05;;
61635;SDS011;59438;45.014;39.006;2023-06-26T00:59:12;14.90;;;7.18;;
61635;SDS011;59438;45.014;39.006;2023-06-26T01:01:39;15.45;;;7.05;;
61635;SDS011;59438;45.014;39.006;2023-06-26T01:04:06;15.32;;;6.82;;
61635;SDS011;59438;45.014;39.006;2023-06-26T01:06:32;14.02;;;6.90;;
61635;SDS011;59438;45.014;39.006;2023-06-26T01:08:59;20.42;;;7.10;;
61635;SDS011;59438;45.014;39.006;2023-06-26T01:11:25;16.08;;;6.93;;
61635;SDS011;59438;45.014;39.006;2023-06-26T01:13:52;15.25;;;6.80;;
61635;SDS011;59438;45.014;39.006;2023-06-26T01:16:19;14.45;;;7.10;;
61635;SDS011;59438;45.014;39.006;2023-06-26T01:18:48;12.18;;;8.35;;
61635;SDS011;59438;45.014;39.006;2023-06-26T01:21:14;14.85;;;8.23;;
61635;SDS011;59438;45.014;39.006;2023-06-26T01:23:45;18.13;;;8.60;;
61635;SDS011;59438;45.014;39.006;2023-06-26T01:26:24;18.15;;;7.82;;
61635;SDS011;59438;45.014;39.006;2023-06-26T01:28:52;16.40;;;7.85;;
61635;SDS011;59438;45.014;39.006;2023-06-26T01:31:21;13.48;;;7.68;;
61635;SDS011;59438;45.014;39.006;2023-06-26T01:33:49;14.45;;;6.75;;
61635;SDS011;59438;45.014;39.006;2023-06-26T01:36:16;17.02;;;7.15;;
61635;SDS011;59438;45.014;39.006;2023-06-26T01:38:42;12.98;;;7.05;;
61635;SDS011;59438;45.014;39.006;2023-06-26T01:41:08;13.52;;;6.85;;
61635;SDS011;59438;45.014;39.006;2023-06-26T01:43:41;13.27;;;6.93;;
61635;SDS011;59438;45.014;39.006;2023-06-26T01:46:16;13.18;;;7.45;;
61635;SDS011;59438;45.014;39.006;2023-06-26T01:48:50;20.70;;;7.13;;
61635;SDS011;59438;45.014;39.006;2023-06-26T01:51:21;14.82;;;7.65;;
61635;SDS011;59438;45.014;39.006;2023-06-26T01:53:56;11.73;;;7.15;;
61635;SDS011;59438;45.014;39.006;2023-06-26T01:56:24;16.98;;;7.57;;
61635;SDS011;59438;45.014;39.006;2023-06-26T01:58:54;14.38;;;7.45;;
61635;SDS011;59438;45.014;39.006;2023-06-26T02:01:21;14.65;;;8.10;;
61635;SDS011;59438;45.014;39.006;2023-06-26T02:03:47;12.38;;;7.70;;
61635;SDS011;59438;45.014;39.006;2023-06-26T02:06:14;16.75;;;7.40;;
61635;SDS011;59438;45.014;39.006;2023-06-26T02:08:40;11.80;;;6.93;;
61635;SDS011;59438;45.014;39.006;2023-06-26T02:11:07;12.55;;;7.60;;
61635;SDS011;59438;45.014;39.006;2023-06-26T02:13:33;16.17;;;7.85;;
61635;SDS011;59438;45.014;39.006;2023-06-26T02:16:01;15.05;;;7.47;;
61635;SDS011;59438;45.014;39.006;2023-06-26T02:18:28;14.93;;;8.00;;
61635;SDS011;59438;45.014;39.006;2023-06-26T02:20:54;20.75;;;13.73;;
61635;SDS011;59438;45.014;39.006;2023-06-26T02:23:20;19.05;;;11.38;;
61635;SDS011;59438;45.014;39.006;2023-06-26T02:25:47;14.68;;;9.15;;
61635;SDS011;59438;45.014;39.006;2023-06-26T02:28:13;19.00;;;8.68;;
61635;SDS011;59438;45.014;39.006;2023-06-26T02:30:39;13.45;;;7.90;;
61635;SDS011;59438;45.014;39.006;2023-06-26T02:33:07;19.40;;;8.73;;
61635;SDS011;59438;45.014;39.006;2023-06-26T02:35:34;13.95;;;8.15;;
61635;SDS011;59438;45.014;39.006;2023-06-26T02:38:00;13.55;;;8.52;;
61635;SDS011;59438;45.014;39.006;2023-06-26T02:40:26;14.07;;;8.35;;
61635;SDS011;59438;45.014;39.006;2023-06-26T02:42:53;13.05;;;7.60;;
61635;SDS011;59438;45.014;39.006;2023-06-26T02:45:19;15.20;;;7.63;;
61635;SDS011;59438;45.014;39.006;2023-06-26T02:47:45;13.98;;;8.52;;
61635;SDS011;59438;45.014;39.006;2023-06-26T02:50:16;11.15;;;7.82;;
61635;SDS011;59438;45.014;39.006;2023-06-26T02:52:43;13.02;;;8.20;;
61635;SDS011;59438;45.014;39.006;2023-06-26T02:55:09;16.10;;;8.02;;
61635;SDS011;59438;45.014;39.006;2023-06-26T02:57:35;14.60;;;8.75;;
61635;SDS011;59438;45.014;39.006;2023-06-26T03:00:02;16.27;;;8.45;;
61635;SDS011;59438;45.014;39.006;2023-06-26T03:02:28;19.50;;;8.80;;
61635;SDS011;59438;45.014;39.006;2023-06-26T03:04:55;16.50;;;8.70;;
61635;SDS011;59438;45.014;39.006;2023-06-26T03:07:22;20.50;;;9.07;;
61635;SDS011;59438;45.014;39.006;2023-06-26T03:09:49;17.80;;;8.23;;
61635;SDS011;59438;45.014;39.006;2023-06-26T03:12:15;17.77;;;9.27;;
61635;SDS011;59438;45.014;39.006;2023-06-26T03:14:42;22.73;;;8.70;;
61635;SDS011;59438;45.014;39.006;2023-06-26T03:17:08;26.40;;;8.68;;
61635;SDS011;59438;45.014;39.006;2023-06-26T03:19:34;21.73;;;8.32;;
61635;SDS011;59438;45.014;39.006;2023-06-26T03:22:00;16.85;;;8.13;;
61635;SDS011;59438;45.014;39.006;2023-06-26T03:24:28;17.55;;;8.45;;
61635;SDS011;59438;45.014;39.006;2023-06-26T03:26:55;13.63;;;8.00;;
61635;SDS011;59438;45.014;39.006;2023-06-26T03:29:21;20.38;;;8.73;;
61635;SDS011;59438;45.014;39.006;2023-06-26T03:31:47;21.58;;;8.57;;
61635;SDS011;59438;45.014;39.006;2023-06-26T03:34:14;17.75;;;8.63;;
61635;SDS011;59438;45.014;39.006;2023-06-26T03:36:40;15.75;;;7.80;;
61635;SDS011;59438;45.014;39.006;2023-06-26T03:39:06;18.42;;;8.13;;
61635;SDS011;59438;45.014;39.006;2023-06-26T03:41:34;14.98;;;7.65;;
61635;SDS011;59438;45.014;39.006;2023-06-26T03:44:00;17.05;;;8.30;;
61635;SDS011;59438;45.014;39.006;2023-06-26T03:46:26;15.05;;;7.88;;
61635;SDS011;59438;45.014;39.006;2023-06-26T03:48:53;21.25;;;8.60;;
61635;SDS011;59438;45.014;39.006;2023-06-26T03:51:19;15.20;;;7.43;;
61635;SDS011;59438;45.014;39.006;2023-06-26T03:53:46;12.52;;;7.53;;
61635;SDS011;59438;45.014;39.006;2023-06-26T03:56:12;13.07;;;7.55;;
61635;SDS011;59438;45.014;39.006;2023-06-26T03:58:40;15.73;;;7.85;;
61635;SDS011;59438;45.014;39.006;2023-06-26T04:01:06;24.35;;;8.35;;
61635;SDS011;59438;45.014;39.006;2023-06-26T04:03:32;18.25;;;7.78;;
61635;SDS011;59438;45.014;39.006;2023-06-26T04:05:59;19.80;;;8.18;;
61635;SDS011;59438;45.014;39.006;2023-06-26T04:08:26;16.95;;;7.30;;
61635;SDS011;59438;45.014;39.006;2023-06-26T04:10:52;20.17;;;6.90;;
61635;SDS011;59438;45.014;39.006;2023-06-26T04:13:18;23.02;;;6.90;;
61635;SDS011;59438;45.014;39.006;2023-06-26T04:15:46;16.75;;;6.50;;
61635;SDS011;59438;45.014;39.006;2023-06-26T04:18:13;13.98;;;6.50;;
61635;SDS011;59438;45.014;39.006;2023-06-26T04:20:39;14.13;;;6.20;;
61635;SDS011;59438;45.014;39.006;2023-06-26T04:23:27;16.33;;;5.55;;
61635;SDS011;59438;45.014;39.006;2023-06-26T04:25:53;12.00;;;6.03;;
61635;SDS011;59438;45.014;39.006;2023-06-26T04:28:19;18.08;;;6.38;;
61635;SDS011;59438;45.014;39.006;2023-06-26T04:30:47;12.43;;;6.25;;
61635;SDS011;59438;45.014;39.006;2023-06-26T04:33:13;13.48;;;6.78;;
61635;SDS011;59438;45.014;39.006;2023-06-26T04:35:40;16.40;;;6.82;;
61635;SDS011;59438;45.014;39.006;2023-06-26T04:38:06;16.08;;;6.95;;
61635;SDS011;59438;45.014;39.006;2023-06-26T04:40:33;17.15;;;6.93;;
61635;SDS011;59438;45.014;39.006;2023-06-26T04:42:59;18.35;;;6.43;;
61635;SDS011;59438;45.014;39.006;2023-06-26T04:45:25;14.25;;;5.97;;
61635;SDS011;59438;45.014;39.006;2023-06-26T04:47:53;14.18;;;5.25;;
61635;SDS011;59438;45.014;39.006;2023-06-26T04:50:19;13.43;;;4.60;;
61635;SDS011;59438;45.014;39.006;2023-06-26T04:52:46;9.68;;;4.53;;
61635;SDS011;59438;45.014;39.006;2023-06-26T04:55:12;9.73;;;4.90;;
61635;SDS011;59438;45.014;39.006;2023-06-26T04:57:38;12.20;;;4.80;;
61635;SDS011;59438;45.014;39.006;2023-06-26T05:00:05;12.65;;;4.93;;
61635;SDS011;59438;45.014;39.006;2023-06-26T05:02:32;9.40;;;4.45;;
61635;SDS011;59438;45.014;39.006;2023-06-26T05:05:00;13.30;;;4.70;;
61635;SDS011;59438;45.014;39.006;2023-06-26T05:07:26;12.25;;;4.72;;
61635;SDS011;59438;45.014;39.006;2023-06-26T05:09:53;13.80;;;5.15;;
61635;SDS011;59438;45.014;39.006;2023-06-26T05:12:19;16.33;;;5.10;;
61635;SDS011;59438;45.014;39.006;2023-06-26T05:14:45;11.15;;;4.88;;
61635;SDS011;59438;45.014;39.006;2023-06-26T05:17:13;16.33;;;5.05;;
61635;SDS011;59438;45.014;39.006;2023-06-26T05:19:40;12.57;;;4.65;;
61635;SDS011;59438;45.014;39.006;2023-06-26T05:22:08;18.10;;;4.63;;
61635;SDS011;59438;45.014;39.006;2023-06-26T05:24:37;16.70;;;5.10;;
61635;SDS011;59438;45.014;39.006;2023-06-26T05:27:04;18.75;;;5.32;;
61635;SDS011;59438;45.014;39.006;2023-06-26T05:29:32;16.42;;;5.03;;
61635;SDS011;59438;45.014;39.006;2023-06-26T05:31:59;12.40;;;4.22;;
61635;SDS011;59438;45.014;39.006;2023-06-26T05:34:26;14.88;;;4.32;;
61635;SDS011;59438;45.014;39.006;2023-06-26T05:36:52;10.95;;;4.70;;
61635;SDS011;59438;45.014;39.006;2023-06-26T05:39:24;13.05;;;4.05;;
61635;SDS011;59438;45.014;39.006;2023-06-26T05:41:51;9.43;;;4.25;;
61635;SDS011;59438;45.014;39.006;2023-06-26T05:44:18;16.52;;;4.20;;
61635;SDS011;59438;45.014;39.006;2023-06-26T05:46:45;10.52;;;3.70;;
61635;SDS011;59438;45.014;39.006;2023-06-26T05:49:12;10.98;;;4.03;;
61635;SDS011;59438;45.014;39.006;2023-06-26T05:51:38;10.40;;;3.80;;
61635;SDS011;59438;45.014;39.006;2023-06-26T05:54:05;11.70;;;3.78;;
61635;SDS011;59438;45.014;39.006;2023-06-26T05:56:33;9.93;;;4.13;;
61635;SDS011;59438;45.014;39.006;2023-06-26T05:59:00;14.23;;;3.63;;
61635;SDS011;59438;45.014;39.006;2023-06-26T06:01:27;11.80;;;3.83;;
61635;SDS011;59438;45.014;39.006;2023-06-26T06:03:54;16.17;;;4.10;;
61635;SDS011;59438;45.014;39.006;2023-06-26T06:06:20;16.58;;;4.68;;
61635;SDS011;59438;45.014;39.006;2023-06-26T06:08:47;18.30;;;4.40;;
61635;SDS011;59438;45.014;39.006;2023-06-26T06:11:13;13.60;;;4.00;;
61635;SDS011;59438;45.014;39.006;2023-06-26T06:13:41;12.57;;;4.47;;
61635;SDS011;59438;45.014;39.006;2023-06-26T06:16:07;21.92;;;4.78;;
61635;SDS011;59438;45.014;39.006;2023-06-26T06:18:34;11.27;;;4.47;;
61635;SDS011;59438;45.014;39.006;2023-06-26T06:21:00;17.02;;;4.70;;
61635;SDS011;59438;45.014;39.006;2023-06-26T06:23:27;14.65;;;4.57;;
61635;SDS011;59438;45.014;39.006;2023-06-26T06:25:53;10.65;;;4.15;;
61635;SDS011;59438;45.014;39.006;2023-06-26T06:28:19;11.77;;;4.45;;
61635;SDS011;59438;45.014;39.006;2023-06-26T06:30:47;9.93;;;4.28;;
61635;SDS011;59438;45.014;39.006;2023-06-26T06:33:13;10.15;;;4.28;;
61635;SDS011;59438;45.014;39.006;2023-06-26T06:35:40;19.05;;;4.47;;
61635;SDS011;59438;45.014;39.006;2023-06-26T06:38:06;19.27;;;4.65;;
61635;SDS011;59438;45.014;39.006;2023-06-26T06:40:32;18.45;;;4.85;;
61635;SDS011;59438;45.014;39.006;2023-06-26T06:42:59;15.10;;;4.65;;
61635;SDS011;59438;45.014;39.006;2023-06-26T06:45:25;7.78;;;4.10;;
61635;SDS011;59438;45.014;39.006;2023-06-26T06:47:53;13.05;;;4.38;;
61635;SDS011;59438;45.014;39.006;2023-06-26T06:50:19;18.85;;;4.75;;
61635;SDS011;59438;45.014;39.006;2023-06-26T06:52:46;14.73;;;4.60;;
61635;SDS011;59438;45.014;39.006;2023-06-26T06:55:12;10.95;;;4.07;;
61635;SDS011;59438;45.014;39.006;2023-06-26T06:57:39;14.73;;;4.38;;
61635;SDS011;59438;45.014;39.006;2023-06-26T07:00:06;12.18;;;4.68;;
61635;SDS011;59438;45.014;39.006;2023-06-26T07:02:34;10.43;;;4.03;;
61635;SDS011;59438;45.014;39.006;2023-06-26T07:05:02;12.27;;;4.53;;
61635;SDS011;59438;45.014;39.006;2023-06-26T07:07:29;22.30;;;4.60;;
61635;SDS011;59438;45.014;39.006;2023-06-26T07:09:59;9.85;;;4.28;;
61635;SDS011;59438;45.014;39.006;2023-06-26T07:12:25;10.98;;;4.88;;
61635;SDS011;59438;45.014;39.006;2023-06-26T07:14:52;15.07;;;4.53;;
61635;SDS011;59438;45.014;39.006;2023-06-26T07:17:18;7.95;;;4.30;;
61635;SDS011;59438;45.014;39.006;2023-06-26T07:19:44;8.05;;;4.28;;
61635;SDS011;59438;45.014;39.006;2023-06-26T07:22:12;10.02;;;4.00;;
61635;SDS011;59438;45.014;39.006;2023-06-26T07:24:38;10.00;;;4.35;;
61635;SDS011;59438;45.014;39.006;2023-06-26T07:27:05;8.88;;;4.28;;
61635;SDS011;59438;45.014;39.006;2023-06-26T07:29:31;12.00;;;4.55;;
61635;SDS011;59438;45.014;39.006;2023-06-26T07:31:58;9.40;;;4.50;;
61635;SDS011;59438;45.014;39.006;2023-06-26T07:34:24;8.93;;;4.57;;
61635;SDS011;59438;45.014;39.006;2023-06-26T07:36:50;8.10;;;4.50;;
61635;SDS011;59438;45.014;39.006;2023-06-26T07:39:18;11.27;;;4.72;;
61635;SDS011;59438;45.014;39.006;2023-06-26T07:41:44;8.52;;;4.93;;
61635;SDS011;59438;45.014;39.006;2023-06-26T07:44:11;9.48;;;4.80;;
61635;SDS011;59438;45.014;39.006;2023-06-26T07:46:37;11.85;;;5.50;;
61635;SDS011;59438;45.014;39.006;2023-06-26T07:49:03;15.10;;;6.15;;
61635;SDS011;59438;45.014;39.006;2023-06-26T07:51:30;10.55;;;4.50;;
61635;SDS011;59438;45.014;39.006;2023-06-26T07:53:56;40.28;;;5.90;;
61635;SDS011;59438;45.014;39.006;2023-06-26T07:56:24;8.55;;;4.57;;
61635;SDS011;59438;45.014;39.006;2023-06-26T07:58:50;8.80;;;4.45;;
61635;SDS011;59438;45.014;39.006;2023-06-26T08:01:17;10.70;;;4.43;;
61635;SDS011;59438;45.014;39.006;2023-06-26T08:03:43;9.20;;;4.15;;
61635;SDS011;59438;45.014;39.006;2023-06-26T08:06:09;10.73;;;4.50;;
61635;SDS011;59438;45.014;39.006;2023-06-26T08:08:36;7.45;;;4.75;;
61635;SDS011;59438;45.014;39.006;2023-06-26T08:11:02;7.55;;;4.30;;
61635;SDS011;59438;45.014;39.006;2023-06-26T08:13:30;8.65;;;4.50;;
61635;SDS011;59438;45.014;39.006;2023-06-26T08:15:56;10.93;;;4.32;;
61635;SDS011;59438;45.014;39.006;2023-06-26T08:18:23;7.38;;;4.57;;
61635;SDS011;59438;45.014;39.006;2023-06-26T08:20:49;12.10;;;4.40;;
61635;SDS011;59438;45.014;39.006;2023-06-26T08:23:15;8.20;;;4.07;;
61635;SDS011;59438;45.014;39.006;2023-06-26T08:25:42;7.07;;;4.10;;
61635;SDS011;59438;45.014;39.006;2023-06-26T08:28:08;10.27;;;5.38;;
61635;SDS011;59438;45.014;39.006;2023-06-26T08:30:36;23.17;;;4.50;;
61635;SDS011;59438;45.014;39.006;2023-06-26T08:33:02;7.60;;;4.28;;
61635;SDS011;59438;45.014;39.006;2023-06-26T08:35:28;8.85;;;4.18;;
61635;SDS011;59438;45.014;39.006;2023-06-26T08:37:55;13.45;;;4.38;;
61635;SDS011;59438;45.014;39.006;2023-06-26T08:40:21;8.55;;;3.88;;
61635;SDS011;59438;45.014;39.006;2023-06-26T08:42:48;9.35;;;4.85;;
61635;SDS011;59438;45.014;39.006;2023-06-26T08:45:14;6.15;;;4.40;;
61635;SDS011;59438;45.014;39.006;2023-06-26T08:47:42;8.07;;;3.83;;
61635;SDS011;59438;45.014;39.006;2023-06-26T08:50:10;10.15;;;4.03;;
61635;SDS011;59438;45.014;39.006;2023-06-26T08:52:41;7.75;;;4.07;;
61635;SDS011;59438;45.014;39.006;2023-06-26T08:55:11;9.57;;;3.92;;
61635;SDS011;59438;45.014;39.006;2023-06-26T08:57:40;9.13;;;3.83;;
61635;SDS011;59438;45.014;39.006;2023-06-26T09:00:07;10.82;;;4.00;;
61635;SDS011;59438;45.014;39.006;2023-06-26T09:02:35;12.57;;;4.22;;
61635;SDS011;59438;45.014;39.006;2023-06-26T09:05:03;12.18;;;4.40;;
61635;SDS011;59438;45.014;39.006;2023-06-26T09:07:30;12.45;;;4.63;;
61635;SDS011;59438;45.014;39.006;2023-06-26T09:09:56;8.63;;;4.07;;
61635;SDS011;59438;45.014;39.006;2023-06-26T09:12:24;13.05;;;4.38;;
61635;SDS011;59438;45.014;39.006;2023-06-26T09:14:52;13.13;;;4.57;;
61635;SDS011;59438;45.014;39.006;2023-06-26T09:17:20;12.27;;;5.75;;
61635;SDS011;59438;45.014;39.006;2023-06-26T09:19:50;10.20;;;5.50;;
61635;SDS011;59438;45.014;39.006;2023-06-26T09:22:18;7.22;;;4.50;;
61635;SDS011;59438;45.014;39.006;2023-06-26T09:24:44;9.70;;;4.43;;
61635;SDS011;59438;45.014;39.006;2023-06-26T09:27:11;11.65;;;4.35;;
61635;SDS011;59438;45.014;39.006;2023-06-26T09:29:38;8.75;;;4.22;;
61635;SDS011;59438;45.014;39.006;2023-06-26T09:32:04;7.57;;;3.97;;
61635;SDS011;59438;45.014;39.006;2023-06-26T09:34:33;7.40;;;4.00;;
61635;SDS011;59438;45.014;39.006;2023-06-26T09:36:59;9.98;;;4.18;;
61635;SDS011;59438;45.014;39.006;2023-06-26T09:39:29;7.32;;;4.63;;
61635;SDS011;59438;45.014;39.006;2023-06-26T09:41:56;6.88;;;4.18;;
61635;SDS011;59438;45.014;39.006;2023-06-26T09:44:23;7.45;;;3.92;;
61635;SDS011;59438;45.014;39.006;2023-06-26T09:46:49;7.00;;;4.10;;
61635;SDS011;59438;45.014;39.006;2023-06-26T09:49:16;5.43;;;4.20;;
61635;SDS011;59438;45.014;39.006;2023-06-26T09:51:42;5.15;;;4.20;;
61635;SDS011;59438;45.014;39.006;2023-06-26T09:54:08;9.10;;;4.43;;
61635;SDS011;59438;45.014;39.006;2023-06-26T09:56:37;5.97;;;4.53;;
61635;SDS011;59438;45.014;39.006;2023-06-26T09:59:03;9.15;;;4.53;;
61635;SDS011;59438;45.014;39.006;2023-06-26T10:01:31;9.70;;;4.50;;
61635;SDS011;59438;45.014;39.006;2023-06-26T10:03:58;8.55;;;4.88;;
61635;SDS011;59438;45.014;39.006;2023-06-26T10:06:26;13.82;;;5.40;;
61635;SDS011;59438;45.014;39.006;2023-06-26T10:08:54;12.30;;;5.55;;
61635;SDS011;59438;45.014;39.006;2023-06-26T10:11:24;7.68;;;5.22;;
61635;SDS011;59438;45.014;39.006;2023-06-26T10:13:54;10.25;;;4.88;;
61635;SDS011;59438;45.014;39.006;2023-06-26T10:18:51;10.13;;;4.60;;
61635;SDS011;59438;45.014;39.006;2023-06-26T10:21:20;6.88;;;5.10;;
61635;SDS011;59438;45.014;39.006;2023-06-26T10:23:49;8.20;;;4.85;;
61635;SDS011;59438;45.014;39.006;2023-06-26T10:26:17;8.98;;;5.07;;
61635;SDS011;59438;45.014;39.006;2023-06-26T10:28:46;10.20;;;4.65;;
61635;SDS011;59438;45.014;39.006;2023-06-26T10:31:16;13.15;;;5.13;;
61635;SDS011;59438;45.014;39.006;2023-06-26T10:33:44;7.60;;;5.10;;
61635;SDS011;59438;45.014;39.006;2023-06-26T10:36:14;12.85;;;5.25;;
61635;SDS011;59438;45.014;39.006;2023-06-26T10:38:51;11.63;;;5.32;;
61635;SDS011;59438;45.014;39.006;2023-06-26T10:41:21;11.57;;;6.30;;
61635;SDS011;59438;45.014;39.006;2023-06-26T10:43:49;10.88;;;5.40;;
61635;SDS011;59438;45.014;39.006;2023-06-26T10:46:19;9.57;;;5.18;;
61635;SDS011;59438;45.014;39.006;2023-06-26T10:48:56;16.23;;;5.20;;
61635;SDS011;59438;45.014;39.006;2023-06-26T10:51:23;9.38;;;5.53;;
61635;SDS011;59438;45.014;39.006;2023-06-26T10:53:53;6.50;;;5.28;;
61635;SDS011;59438;45.014;39.006;2023-06-26T10:56:20;8.95;;;6.07;;
61635;SDS011;59438;45.014;39.006;2023-06-26T10:58:47;10.98;;;5.60;;
61635;SDS011;59438;45.014;39.006;2023-06-26T11:01:14;8.52;;;5.97;;
61635;SDS011;59438;45.014;39.006;2023-06-26T11:03:46;15.75;;;6.13;;
61635;SDS011;59438;45.014;39.006;2023-06-26T11:06:14;10.00;;;5.13;;
61635;SDS011;59438;45.014;39.006;2023-06-26T11:08:44;11.68;;;5.72;;
61635;SDS011;59438;45.014;39.006;2023-06-26T11:11:11;10.80;;;5.13;;
61635;SDS011;59438;45.014;39.006;2023-06-26T11:13:37;11.23;;;4.88;;
61635;SDS011;59438;45.014;39.006;2023-06-26T11:16:05;15.95;;;5.53;;
61635;SDS011;59438;45.014;39.006;2023-06-26T11:18:31;8.77;;;4.78;;
61635;SDS011;59438;45.014;39.006;2023-06-26T11:21:05;18.88;;;5.50;;
61635;SDS011;59438;45.014;39.006;2023-06-26T11:23:32;12.20;;;5.70;;
61635;SDS011;59438;45.014;39.006;2023-06-26T11:26:14;12.52;;;4.85;;
61635;SDS011;59438;45.014;39.006;2023-06-26T11:28:48;11.02;;;4.85;;
61635;SDS011;59438;45.014;39.006;2023-06-26T11:31:28;12.60;;;4.70;;
61635;SDS011;59438;45.014;39.006;2023-06-26T11:33:55;13.38;;;5.68;;
61635;SDS011;59438;45.014;39.006;2023-06-26T11:36:24;9.00;;;5.43;;
61635;SDS011;59438;45.014;39.006;2023-06-26T11:38:54;9.10;;;5.00;;
61635;SDS011;59438;45.014;39.006;2023-06-26T11:41:21;7.55;;;4.90;;
61635;SDS011;59438;45.014;39.006;2023-06-26T11:43:47;8.77;;;4.80;;
61635;SDS011;59438;45.014;39.006;2023-06-26T11:46:15;8.35;;;5.10;;
61635;SDS011;59438;45.014;39.006;2023-06-26T11:48:42;9.60;;;5.13;;
61635;SDS011;59438;45.014;39.006;2023-06-26T11:51:09;6.47;;;4.80;;
61635;SDS011;59438;45.014;39.006;2023-06-26T11:53:40;7.22;;;4.70;;
61635;SDS011;59438;45.014;39.006;2023-06-26T11:56:07;12.05;;;5.53;;
61635;SDS011;59438;45.014;39.006;2023-06-26T11:58:34;13.05;;;5.38;;
61635;SDS011;59438;45.014;39.006;2023-06-26T12:01:01;7.18;;;4.75;;
61635;SDS011;59438;45.014;39.006;2023-06-26T12:03:28;9.80;;;4.97;;
61635;SDS011;59438;45.014;39.006;2023-06-26T12:05:55;6.70;;;4.60;;
61635;SDS011;59438;45.014;39.006;2023-06-26T12:08:21;8.13;;;4.45;;
61635;SDS011;59438;45.014;39.006;2023-06-26T12:10:49;7.75;;;4.70;;
61635;SDS011;59438;45.014;39.006;2023-06-26T12:13:16;8.13;;;4.55;;
61635;SDS011;59438;45.014;39.006;2023-06-26T12:15:42;10.63;;;4.75;;
61635;SDS011;59438;45.014;39.006;2023-06-26T12:18:09;9.60;;;4.90;;
61635;SDS011;59438;45.014;39.006;2023-06-26T12:20:39;13.68;;;5.35;;
61635;SDS011;59438;45.014;39.006;2023-06-26T12:23:11;10.10;;;4.65;;
61635;SDS011;59438;45.014;39.006;2023-06-26T12:25:38;7.90;;;4.47;;
61635;SDS011;59438;45.014;39.006;2023-06-26T12:28:07;5.80;;;4.43;;
61635;SDS011;59438;45.014;39.006;2023-06-26T12:30:45;7.15;;;4.38;;
61635;SDS011;59438;45.014;39.006;2023-06-26T12:33:12;5.03;;;4.20;;
61635;SDS011;59438;45.014;39.006;2023-06-26T12:35:40;7.10;;;4.00;;
61635;SDS011;59438;45.014;39.006;2023-06-26T12:38:07;10.38;;;4.78;;
61635;SDS011;59438;45.014;39.006;2023-06-26T12:40:33;8.57;;;4.18;;
61635;SDS011;59438;45.014;39.006;2023-06-26T12:42:59;11.88;;;4.72;;
61635;SDS011;59438;45.014;39.006;2023-06-26T12:45:29;10.07;;;4.38;;
61635;SDS011;59438;45.014;39.006;2023-06-26T12:48:07;9.45;;;4.18;;
61635;SDS011;59438;45.014;39.006;2023-06-26T12:50:36;8.63;;;4.30;;
61635;SDS011;59438;45.014;39.006;2023-06-26T12:55:29;8.95;;;4.68;;
61635;SDS011;59438;45.014;39.006;2023-06-26T12:57:56;8.30;;;4.25;;
61635;SDS011;59438;45.014;39.006;2023-06-26T13:00:22;8.50;;;3.70;;
61635;SDS011;59438;45.014;39.006;2023-06-26T13:02:50;6.20;;;4.00;;
61635;SDS011;59438;45.014;39.006;2023-06-26T13:05:16;9.65;;;4.53;;
61635;SDS011;59438;45.014;39.006;2023-06-26T13:07:43;8.27;;;4.40;;
61635;SDS011;59438;45.014;39.006;2023-06-26T13:10:09;10.07;;;4.13;;
61635;SDS011;59438;45.014;39.006;2023-06-26T13:12:36;10.55;;;4.57;;
61635;SDS011;59438;45.014;39.006;2023-06-26T13:15:02;9.35;;;4.60;;
61635;SDS011;59438;45.014;39.006;2023-06-26T13:17:29;7.30;;;4.38;;
61635;SDS011;59438;45.014;39.006;2023-06-26T13:19:57;9.07;;;4.22;;
61635;SDS011;59438;45.014;39.006;2023-06-26T13:22:23;7.13;;;4.20;;
61635;SDS011;59438;45.014;39.006;2023-06-26T13:24:49;12.70;;;4.65;;
61635;SDS011;59438;45.014;39.006;2023-06-26T13:27:16;15.70;;;4.38;;
61635;SDS011;59438;45.014;39.006;2023-06-26T13:29:42;8.90;;;4.30;;
61635;SDS011;59438;45.014;39.006;2023-06-26T13:32:09;8.13;;;4.55;;
61635;SDS011;59438;45.014;39.006;2023-06-26T13:34:35;7.25;;;5.40;;
61635;SDS011;59438;45.014;39.006;2023-06-26T13:37:03;8.75;;;5.38;;
61635;SDS011;59438;45.014;39.006;2023-06-26T13:39:29;10.02;;;4.80;;
61635;SDS011;59438;45.014;39.006;2023-06-26T13:41:55;10.40;;;4.05;;
61635;SDS011;59438;45.014;39.006;2023-06-26T13:44:22;6.32;;;4.32;;
61635;SDS011;59438;45.014;39.006;2023-06-26T13:46:48;8.25;;;4.70;;
61635;SDS011;59438;45.014;39.006;2023-06-26T13:49:14;8.15;;;4.57;;
61635;SDS011;59438;45.014;39.006;2023-06-26T13:51:41;11.50;;;4.70;;
61635;SDS011;59438;45.014;39.006;2023-06-26T13:54:09;9.45;;;4.22;;
61635;SDS011;59438;45.014;39.006;2023-06-26T13:56:35;9.85;;;4.47;;
61635;SDS011;59438;45.014;39.006;2023-06-26T13:59:01;8.13;;;4.63;;
61635;SDS011;59438;45.014;39.006;2023-06-26T14:01:28;9.57;;;4.10;;
61635;SDS011;59438;45.014;39.006;2023-06-26T14:03:54;8.80;;;4.05;;
61635;SDS011;59438;45.014;39.006;2023-06-26T14:06:20;7.40;;;3.97;;
61635;SDS011;59438;45.014;39.006;2023-06-26T14:08:47;12.88;;;4.75;;
61635;SDS011;59438;45.014;39.006;2023-06-26T14:11:14;10.80;;;4.65;;
61635;SDS011;59438;45.014;39.006;2023-06-26T14:13:41;11.00;;;4.93;;
61635;SDS011;59438;45.014;39.006;2023-06-26T14:16:07;11.13;;;4.90;;
61635;SDS011;59438;45.014;39.006;2023-06-26T14:18:33;6.28;;;4.30;;
61635;SDS011;59438;45.014;39.006;2023-06-26T14:21:00;20.05;;;5.00;;
61635;SDS011;59438;45.014;39.006;2023-06-26T14:23:26;11.85;;;4.80;;
61635;SDS011;59438;45.014;39.006;2023-06-26T14:25:53;10.55;;;4.65;;
61635;SDS011;59438;45.014;39.006;2023-06-26T14:28:20;9.27;;;5.20;;
61635;SDS011;59438;45.014;39.006;2023-06-26T14:30:47;32.53;;;6.15;;